WEATHER DATA

YESTERDAY
Time Temp. Dewp. Hum. Wind dir Wind speed Wind gust Bar. 1h Prec. 24h Prec.
00:01 13.9 3.4 49 14 0.3 1.4 1019.4 0.0000 0.0000
00:11 13.6 3.1 49 0 0.6 1.1 1019.4 0.0000 0.0000
00:22 13.4 3.2 50 315 0.3 1.1 1019.6 0.0000 0.0000
00:31 13.2 3 50 45 0.3 1.1 1019.7 0.0000 0.0000
00:41 13 3.4 52 90 0.3 0.8 1019.8 0.0000 0.0000
00:49 12.8 3.5 53 90 0.3 0.6 1019.6 0.0000
07:49 11.2 4.7 64 254 0.6 1.7 1021 0.0000 0.0000
07:59 11.5 4.5 62 221 0.8 2.2 1020.8 0.0000 0.0000
08:08 11.6 4.3 61 251 1.4 4.4 1020.8 0.0000 0.0000
08:18 11.8 4.3 60 270 1.1 3.3 1020.8 0.0000 0.0000
08:29 12 4.7 61 220 1.1 3.9 1020.7 0.0000 0.0000
08:39 12.1 4.6 60 212 1.1 4.2 1020.7 0.0000 0.0000
08:49 12.4 4.9 60 246 0.6 1.9 1020.7 0.0000 0.0000
08:59 12.6 4.8 59 209 0.8 2.2 1020.7 0.0000 0.0000
09:09 12.8 4.5 57 206 1.4 3.3 1020.6 0.0000 0.0000
09:19 13.5 4.9 56 324 0.8 3.1 1020.4 0.0000 0.0000
09:29 14 4.8 54 214 1.1 4.7 1020.5 0.0000 0.0000
09:39 14.4 4.7 52 214 1.1 3.9 1020.4 0.0000 0.0000
09:49 15 4.4 49 226 1.4 3.9 1020.4 0.0000 0.0000
09:59 15.4 4.5 48 212 1.4 4.7 1020.3 0.0000 0.0000
10:09 15.1 4.2 48 288 1.1 3.9 1020.4 0.0000 0.0000
10:19 15.1 4.8 50 247 1.7 5.8 1020.5 0.0000 0.0000
10:29 15.5 4.8 49 214 1.1 4.7 1020.5 0.0000 0.0000
10:39 15.6 4.9 49 207 0.8 3.1 1020.4 0.0000 0.0000
10:49 15.5 5.1 50 186 0.6 1.9 1020.5 0.0000 0.0000
10:59 15.6 5.2 50 288 0.6 1.9 1020.6 0.0000 0.0000
11:09 15.3 4.9 50 204 1.1 4.2 1020.7 0.0000 0.0000
11:20 15.4 5 50 212 1.1 4.2 1020.7 0.0000 0.0000
11:29 15.3 4.9 50 237 0.8 3.1 1020.8 0.0000 0.0000
11:38 15.1 5 51 253 0.8 3.6 1020.9 0.0000 0.0000
11:49 14.6 4.9 52 254 1.1 2.5 1021 0.0000 0.0000
12:00 14.2 5.6 56 315 1.4 5 1021.4 0.0000 0.0000
12:10 13.8 6.7 62 281 0.8 3.1 1021.5 0.0000 0.0000
12:19 13.3 6.9 65 300 0.8 3.3 1021.7 0.2020 0.2000
12:29 12.8 7 68 338 0.6 1.7 1021.9 0.5050 0.5000
12:40 12.4 7.1 70 209 1.1 3.6 1022 0.6060 0.6000
12:50 12 7.1 72 213 1.1 3.6 1021.9 0.8080 0.8000
13:00 12.2 7.5 73 183 0.6 3.3 1022 0.8080 0.8000
13:02 12.2 7.5 73 315 0.6 1.4 1021.6 0.0000 0.8000
13:55 12.2 6.9 70 315 0.6 1.7 1021.7 0.0000 0.8000
14:04 11.9 7.2 73 332 0.6 3.1 1021.5 0.1010 0.9000
14:15 11.8 7.3 74 349 0.3 1.9 1021.6 0.2020 1.0000
14:25 11.6 7.3 75 8 0.6 1.9 1021.6 0.4040 1.2000
14:35 11.4 7.5 77 343 0.6 1.4 1021.6 0.7070 1.5000
14:37 11.6 7.9 78 348 0.8 2.5 1021.7 0.7070 1.5000
14:53 12.3 8.2 76 347 0.6 1.7 1021.5 0.6060 1.5000
15:04 12.6 8.3 75 334 1.1 3.1 1021.5 0.6060 1.5000
15:14 12.4 7.7 73 307 1.1 3.9 1021.9 0.8080 1.8000
15:25 11.9 7.4 74 0 0.6 1.9 1021.7 0.5050 1.9000
15:34 12.5 8.6 77 229 0.6 2.2 1021.6 0.4040 1.9000
15:45 13.3 9.2 76 241 0.8 3.3 1021.6 0.4040 1.9000
15:55 14.2 9.4 73 195 0.8 3.3 1021.5 0.4040 1.9000
16:04 14.8 9.2 69 315 0.8 3.1 1021.7 0.4040 1.9000
16:15 14.4 8.4 67 325 0.8 3.1 1021.9 0.0000 1.9000
16:22 14.4 8.8 69 210 1.1 3.3 1021.8 0.0000 1.9000
16:36 15.3 9.2 67 210 0.8 3.9 1021.8 0.0000 1.9000
16:44 15 8.5 65 346 1.4 3.6 1021.9 0.1010 2.0000
16:54 14.4 9 70 357 0.8 2.5 1021.9 0.1010 2.0000
17:06 14.8 8.7 67 318 0.8 2.5 1022 0.1010 2.0000
17:16 14.8 8.3 65 313 1.1 3.3 1022 0.1010 2.0000
17:25 15 8.5 65 254 0.8 3.9 1022 0.1010 2.0000
17:35 15 7.8 62 322 1.1 3.6 1022 0.1010 2.0000
17:46 14.8 7.6 62 322 1.4 3.9 1022 0.0000 2.0000
17:56 14.9 7.7 62 338 0.8 3.6 1021.9 0.0000 2.0000
18:04 14.4 7.2 62 295 1.1 5 1022.1 0.0000 2.0000
18:16 14.4 7.5 63 294 0.8 3.1 1022 0.0000 2.0000
18:26 14.4 7.5 63 295 0.8 2.2 1022.2 0.0000 2.0000
18:36 14 8 67 270 0.8 2.5 1022.2 0.1010 2.1000
18:46 13.7 8.5 71 315 0.3 1.7 1022.4 0.9090 2.9000
18:56 13.6 8.9 73 315 0.3 1.1 1022.5 0.9090 2.9000
19:06 13.6 9.1 74 233 0.3 2.2 1022.3 0.9090 2.9000
19:16 13.7 9 73 233 0.6 2.5 1022.3 0.9090 2.9000
19:26 13.7 9 73 235 0.8 1.9 1022.3 0.9090 2.9000
19:37 13.7 8.3 70 217 1.1 3.3 1022.6 0.2020 2.9000
19:46 13.5 7.9 69 225 1.1 3.9 1022.5 0.0000 2.9000
19:56 13.4 7.8 69 229 0.6 1.7 1022.5 0.0000 2.9000
20:07 13.3 7.5 68 255 0.6 1.7 1022.8 0.0000 2.9000
20:17 13.1 7.8 70 309 0.6 3.3 1022.9 0.0000 2.9000
20:26 12.9 8 72 270 0.3 0.8 1022.9 0.0000 2.9000
20:37 12.8 7.9 72 304 0.6 1.7 1022.8 0.0000 2.9000
20:47 12.6 7.7 72 270 0.6 1.4 1022.7 0.0000 2.9000
20:57 12.4 7.5 72 219 0.8 2.5 1022.8 0.0000 2.9000
21:06 12.3 7.6 73 218 0.3 1.1 1022.9 0.0000 2.9000
21:16 12.2 7.3 72 191 0.3 1.1 1022.9 0.0000 2.9000
21:26 12.2 7.3 72 180 0.3 1.4 1023.1 0.0000 2.9000
21:37 12.1 7.2 72 188 0.3 1.1 1023.3 0.0000 2.9000
21:47 12 7.1 72 192 0.3 0.8 1023.3 0.0000 2.9000
22:08 11.7 7 73 143 0.6 1.1 1023.3 0.0000 2.9000
22:18 11.5 7 74 139 0.3 0.8 1023.6 0.0000 2.9000
22:28 11.3 6.8 74 135 0.3 0.6 1023.7 0.0000 2.9000
22:39 11.1 6.8 75 45 0.3 0.8 1023.6 0.0000 2.9000
22:46 11 6.9 76 130 0.3 0.6 1023.7 0.0000 2.9000
22:58 11 6.9 76 135 0.3 0.6 1023.8 0.0000 2.9000
22:59 11 7.1 77 135 0.3 0.6 1024 0.0000 2.9000
23:19 10.8 6.9 77 209 0.3 0.8 1024.1 0.0000 2.9000
23:29 10.8 7.1 78 210 0.6 2.2 1024.1 2.9000

DAY STATISTIC

2018-06-22
TEMPERATURE
AVERAGE
13.3
HIGH
15.6
10:39
LOW
10.8
23:19
PRESSURE
AVERAGE
1021.7
HIGH
1024.1
23:19
LOW
1019.4
00:01
DEWPOINT
AVERAGE
6.7
HIGH
9.4
15:55
LOW
3.0
00:31
HUMIDITY
AVERAGE
65
HIGH
78
14:37
LOW
48
09:59
WIND SPEED
AVERAGE
0.8
HIGH
1.7
10:19
WIND GUST
AVERAGE
2.6
HIGH
5.8
10:19
WIND DIRECTION
PREVAILING
SW
32.3%
N
12.5
NE
2.1
E
2.1
SE
6.3
S
8.3
SW
32.3
W
13.5
NW
22.9
PRECIPITATION
RAIN HOUR
0.9
RAIN DAY
2.9
TEMPERATURE (°C)
LOW
10.8
HIGH
15.6
AVERAGE
13.3
PRESSURE (hpa)
LOW
1019.4
HIGH
1024.1
AVERAGE
1021.7
DEVICE